Hessel, Michigan
Current Conditions -  °F | °C
As of 12:36 AM on Thursday 27 Nov 2014 (Local Time) from KMCD Reporting Station
Broken Clouds Broken Clouds  
Wind Chill: 21°   Ceiling: 3500
Heat Index: 26°   Visibility: 10mi
Dew Point: 24°   Wind: 5mph
Humidity: 92%   Direction: 50°NE
Pressure: 30.1"   Gusts: NA
Location:  46°N, 84.43°W
Report Text: KMCD 270536Z AUTO 05004KT 10SM SCT019 BKN035 BKN085 M03/M04 A3010 RMK AO2 T10331044
Loading
Personal Weather Stations






























Interactive Weather Map New forecast layout! Learn more

10-Day Weather Forecast

Advertisements
Track Severe Weather on mobile